sensor_id;sensor_type;location;lat;lon;timestamp;P1;durP1;ratioP1;P2;durP2;ratioP2
76103;SDS011;64831;44.870;37.336;2022-12-11T00:01:37;11.90;;;6.20;;
76103;SDS011;64831;44.870;37.336;2022-12-11T00:04:09;10.33;;;6.60;;
76103;SDS011;64831;44.870;37.336;2022-12-11T00:06:35;12.55;;;6.15;;
76103;SDS011;64831;44.870;37.336;2022-12-11T00:09:01;11.70;;;6.00;;
76103;SDS011;64831;44.870;37.336;2022-12-11T00:11:30;9.70;;;5.43;;
76103;SDS011;64831;44.870;37.336;2022-12-11T00:13:56;12.60;;;5.72;;
76103;SDS011;64831;44.870;37.336;2022-12-11T00:16:22;10.77;;;5.82;;
76103;SDS011;64831;44.870;37.336;2022-12-11T00:18:48;11.38;;;5.53;;
76103;SDS011;64831;44.870;37.336;2022-12-11T00:21:14;10.43;;;5.47;;
76103;SDS011;64831;44.870;37.336;2022-12-11T00:23:41;8.90;;;5.38;;
76103;SDS011;64831;44.870;37.336;2022-12-11T00:26:08;9.40;;;4.90;;
76103;SDS011;64831;44.870;37.336;2022-12-11T00:28:36;10.32;;;5.95;;
76103;SDS011;64831;44.870;37.336;2022-12-11T00:31:03;11.65;;;5.68;;
76103;SDS011;64831;44.870;37.336;2022-12-11T00:33:36;9.85;;;5.28;;
76103;SDS011;64831;44.870;37.336;2022-12-11T00:36:02;9.88;;;5.43;;
76103;SDS011;64831;44.870;37.336;2022-12-11T00:38:28;9.05;;;5.03;;
76103;SDS011;64831;44.870;37.336;2022-12-11T00:40:58;11.30;;;5.50;;
76103;SDS011;64831;44.870;37.336;2022-12-11T00:43:24;10.10;;;5.38;;
76103;SDS011;64831;44.870;37.336;2022-12-11T00:45:50;8.52;;;5.22;;
76103;SDS011;64831;44.870;37.336;2022-12-11T00:48:19;10.95;;;4.90;;
76103;SDS011;64831;44.870;37.336;2022-12-11T00:51:09;8.80;;;5.30;;
76103;SDS011;64831;44.870;37.336;2022-12-11T00:53:35;7.97;;;5.13;;
76103;SDS011;64831;44.870;37.336;2022-12-11T00:56:08;12.73;;;5.55;;
76103;SDS011;64831;44.870;37.336;2022-12-11T00:58:45;12.35;;;4.57;;
76103;SDS011;64831;44.870;37.336;2022-12-11T01:01:15;9.38;;;4.95;;
76103;SDS011;64831;44.870;37.336;2022-12-11T01:03:46;10.60;;;5.03;;
76103;SDS011;64831;44.870;37.336;2022-12-11T01:06:16;8.65;;;4.10;;
76103;SDS011;64831;44.870;37.336;2022-12-11T01:09:15;10.43;;;5.05;;
76103;SDS011;64831;44.870;37.336;2022-12-11T01:12:02;10.52;;;4.82;;
76103;SDS011;64831;44.870;37.336;2022-12-11T01:14:28;9.80;;;4.00;;
76103;SDS011;64831;44.870;37.336;2022-12-11T01:16:54;12.23;;;4.75;;
76103;SDS011;64831;44.870;37.336;2022-12-11T01:19:22;8.95;;;4.20;;
76103;SDS011;64831;44.870;37.336;2022-12-11T01:21:51;9.15;;;4.15;;
76103;SDS011;64831;44.870;37.336;2022-12-11T01:24:17;8.70;;;3.90;;
76103;SDS011;64831;44.870;37.336;2022-12-11T01:26:43;10.23;;;4.20;;
76103;SDS011;64831;44.870;37.336;2022-12-11T01:29:09;5.60;;;3.97;;
76103;SDS011;64831;44.870;37.336;2022-12-11T01:31:40;11.85;;;4.25;;
76103;SDS011;64831;44.870;37.336;2022-12-11T01:34:06;9.27;;;4.20;;
76103;SDS011;64831;44.870;37.336;2022-12-11T01:36:35;9.45;;;3.88;;
76103;SDS011;64831;44.870;37.336;2022-12-11T01:39:01;8.63;;;4.07;;
76103;SDS011;64831;44.870;37.336;2022-12-11T01:41:36;6.85;;;3.38;;
76103;SDS011;64831;44.870;37.336;2022-12-11T01:46:46;9.70;;;3.40;;
76103;SDS011;64831;44.870;37.336;2022-12-11T01:49:15;9.20;;;4.03;;
76103;SDS011;64831;44.870;37.336;2022-12-11T01:51:50;6.95;;;3.72;;
76103;SDS011;64831;44.870;37.336;2022-12-11T01:54:27;10.13;;;3.90;;
76103;SDS011;64831;44.870;37.336;2022-12-11T01:56:58;7.80;;;3.63;;
76103;SDS011;64831;44.870;37.336;2022-12-11T01:59:34;6.53;;;3.80;;
76103;SDS011;64831;44.870;37.336;2022-12-11T02:02:11;7.05;;;3.35;;
76103;SDS011;64831;44.870;37.336;2022-12-11T02:04:43;7.28;;;3.28;;
76103;SDS011;64831;44.870;37.336;2022-12-11T02:07:20;7.45;;;3.70;;
76103;SDS011;64831;44.870;37.336;2022-12-11T02:09:53;7.35;;;3.55;;
76103;SDS011;64831;44.870;37.336;2022-12-11T02:12:25;9.05;;;4.43;;
76103;SDS011;64831;44.870;37.336;2022-12-11T02:15:16;8.10;;;3.55;;
76103;SDS011;64831;44.870;37.336;2022-12-11T02:18:05;9.20;;;3.22;;
76103;SDS011;64831;44.870;37.336;2022-12-11T02:20:57;7.65;;;3.03;;
76103;SDS011;64831;44.870;37.336;2022-12-11T02:26:46;8.43;;;3.50;;
76103;SDS011;64831;44.870;37.336;2022-12-11T02:29:12;7.90;;;3.55;;
76103;SDS011;64831;44.870;37.336;2022-12-11T02:31:56;10.65;;;4.07;;
76103;SDS011;64831;44.870;37.336;2022-12-11T02:34:31;10.48;;;3.78;;
76103;SDS011;64831;44.870;37.336;2022-12-11T02:37:11;7.35;;;3.47;;
76103;SDS011;64831;44.870;37.336;2022-12-11T02:39:44;7.47;;;3.88;;
76103;SDS011;64831;44.870;37.336;2022-12-11T02:42:20;7.45;;;3.30;;
76103;SDS011;64831;44.870;37.336;2022-12-11T02:45:31;7.70;;;3.28;;
76103;SDS011;64831;44.870;37.336;2022-12-11T02:47:58;11.77;;;3.85;;
76103;SDS011;64831;44.870;37.336;2022-12-11T02:50:30;10.48;;;3.92;;
76103;SDS011;64831;44.870;37.336;2022-12-11T02:53:01;6.78;;;3.20;;
76103;SDS011;64831;44.870;37.336;2022-12-11T02:55:31;8.55;;;3.47;;
76103;SDS011;64831;44.870;37.336;2022-12-11T02:58:07;8.57;;;3.50;;
76103;SDS011;64831;44.870;37.336;2022-12-11T03:00:38;8.88;;;3.58;;
76103;SDS011;64831;44.870;37.336;2022-12-11T03:03:13;8.25;;;3.65;;
76103;SDS011;64831;44.870;37.336;2022-12-11T03:05:42;8.82;;;4.10;;
76103;SDS011;64831;44.870;37.336;2022-12-11T03:08:10;9.05;;;3.92;;
76103;SDS011;64831;44.870;37.336;2022-12-11T03:10:40;9.63;;;3.67;;
76103;SDS011;64831;44.870;37.336;2022-12-11T03:13:05;8.83;;;4.07;;
76103;SDS011;64831;44.870;37.336;2022-12-11T03:15:42;9.32;;;3.63;;
76103;SDS011;64831;44.870;37.336;2022-12-11T03:21:31;7.43;;;3.90;;
76103;SDS011;64831;44.870;37.336;2022-12-11T03:24:13;8.27;;;3.65;;
76103;SDS011;64831;44.870;37.336;2022-12-11T03:26:48;10.05;;;4.20;;
76103;SDS011;64831;44.870;37.336;2022-12-11T03:29:22;11.95;;;4.30;;
76103;SDS011;64831;44.870;37.336;2022-12-11T03:32:11;10.10;;;4.20;;
76103;SDS011;64831;44.870;37.336;2022-12-11T03:34:55;9.23;;;4.03;;
76103;SDS011;64831;44.870;37.336;2022-12-11T03:37:25;8.85;;;4.68;;
76103;SDS011;64831;44.870;37.336;2022-12-11T03:39:58;9.80;;;4.75;;
76103;SDS011;64831;44.870;37.336;2022-12-11T03:42:36;9.13;;;4.70;;
76103;SDS011;64831;44.870;37.336;2022-12-11T03:45:04;10.27;;;4.75;;
76103;SDS011;64831;44.870;37.336;2022-12-11T03:47:32;12.35;;;5.00;;
76103;SDS011;64831;44.870;37.336;2022-12-11T03:49:59;9.98;;;4.57;;
76103;SDS011;64831;44.870;37.336;2022-12-11T03:52:28;11.18;;;4.63;;
76103;SDS011;64831;44.870;37.336;2022-12-11T03:54:59;13.40;;;5.20;;
76103;SDS011;64831;44.870;37.336;2022-12-11T03:57:35;9.95;;;5.30;;
76103;SDS011;64831;44.870;37.336;2022-12-11T04:00:06;11.43;;;5.22;;
76103;SDS011;64831;44.870;37.336;2022-12-11T04:03:00;13.15;;;5.57;;
76103;SDS011;64831;44.870;37.336;2022-12-11T04:05:38;14.25;;;5.25;;
76103;SDS011;64831;44.870;37.336;2022-12-11T04:08:06;11.40;;;5.78;;
76103;SDS011;64831;44.870;37.336;2022-12-11T04:10:32;12.57;;;5.38;;
76103;SDS011;64831;44.870;37.336;2022-12-11T04:12:58;12.40;;;5.65;;
76103;SDS011;64831;44.870;37.336;2022-12-11T04:15:24;11.73;;;5.30;;
76103;SDS011;64831;44.870;37.336;2022-12-11T04:17:53;14.55;;;5.93;;
76103;SDS011;64831;44.870;37.336;2022-12-11T04:20:37;11.07;;;5.65;;
76103;SDS011;64831;44.870;37.336;2022-12-11T04:23:21;15.40;;;6.07;;
76103;SDS011;64831;44.870;37.336;2022-12-11T04:26:15;11.52;;;5.38;;
76103;SDS011;64831;44.870;37.336;2022-12-11T04:28:45;13.18;;;4.97;;
76103;SDS011;64831;44.870;37.336;2022-12-11T04:31:12;13.02;;;4.70;;
76103;SDS011;64831;44.870;37.336;2022-12-11T04:33:43;15.50;;;5.60;;
76103;SDS011;64831;44.870;37.336;2022-12-11T04:36:09;10.27;;;4.97;;
76103;SDS011;64831;44.870;37.336;2022-12-11T04:38:35;11.02;;;4.72;;
76103;SDS011;64831;44.870;37.336;2022-12-11T04:41:11;13.60;;;5.13;;
76103;SDS011;64831;44.870;37.336;2022-12-11T04:43:38;12.38;;;4.57;;
76103;SDS011;64831;44.870;37.336;2022-12-11T04:46:06;12.68;;;5.78;;
76103;SDS011;64831;44.870;37.336;2022-12-11T04:48:34;9.15;;;4.28;;
76103;SDS011;64831;44.870;37.336;2022-12-11T04:51:01;13.30;;;4.55;;
76103;SDS011;64831;44.870;37.336;2022-12-11T04:53:27;10.13;;;3.97;;
76103;SDS011;64831;44.870;37.336;2022-12-11T04:56:09;11.55;;;4.50;;
76103;SDS011;64831;44.870;37.336;2022-12-11T04:58:43;15.45;;;4.80;;
76103;SDS011;64831;44.870;37.336;2022-12-11T05:01:16;8.53;;;4.67;;
76103;SDS011;64831;44.870;37.336;2022-12-11T05:03:43;13.40;;;4.55;;
76103;SDS011;64831;44.870;37.336;2022-12-11T05:06:10;10.75;;;4.72;;
76103;SDS011;64831;44.870;37.336;2022-12-11T05:08:37;10.93;;;4.93;;
76103;SDS011;64831;44.870;37.336;2022-12-11T05:11:08;10.25;;;4.60;;
76103;SDS011;64831;44.870;37.336;2022-12-11T05:13:42;9.13;;;4.50;;
76103;SDS011;64831;44.870;37.336;2022-12-11T05:16:28;9.65;;;4.43;;
76103;SDS011;64831;44.870;37.336;2022-12-11T05:18:57;9.40;;;4.43;;
76103;SDS011;64831;44.870;37.336;2022-12-11T05:21:23;10.63;;;4.47;;
76103;SDS011;64831;44.870;37.336;2022-12-11T05:24:13;9.55;;;4.95;;
76103;SDS011;64831;44.870;37.336;2022-12-11T05:26:42;11.82;;;4.50;;
76103;SDS011;64831;44.870;37.336;2022-12-11T05:29:08;8.63;;;4.25;;
76103;SDS011;64831;44.870;37.336;2022-12-11T05:31:34;10.10;;;3.80;;
76103;SDS011;64831;44.870;37.336;2022-12-11T05:34:00;9.30;;;4.22;;
76103;SDS011;64831;44.870;37.336;2022-12-11T05:36:27;9.85;;;3.97;;
76103;SDS011;64831;44.870;37.336;2022-12-11T05:38:55;10.63;;;4.30;;
76103;SDS011;64831;44.870;37.336;2022-12-11T05:41:23;11.05;;;3.70;;
76103;SDS011;64831;44.870;37.336;2022-12-11T05:43:57;10.65;;;4.13;;
76103;SDS011;64831;44.870;37.336;2022-12-11T05:46:24;9.05;;;4.18;;
76103;SDS011;64831;44.870;37.336;2022-12-11T05:48:55;13.55;;;4.35;;
76103;SDS011;64831;44.870;37.336;2022-12-11T05:51:23;12.07;;;4.38;;
76103;SDS011;64831;44.870;37.336;2022-12-11T05:53:51;8.02;;;4.35;;
76103;SDS011;64831;44.870;37.336;2022-12-11T05:56:19;9.55;;;4.43;;
76103;SDS011;64831;44.870;37.336;2022-12-11T05:58:47;9.30;;;4.63;;
76103;SDS011;64831;44.870;37.336;2022-12-11T06:01:23;7.38;;;3.75;;
76103;SDS011;64831;44.870;37.336;2022-12-11T06:03:54;8.40;;;4.30;;
76103;SDS011;64831;44.870;37.336;2022-12-11T06:06:20;8.65;;;3.90;;
76103;SDS011;64831;44.870;37.336;2022-12-11T06:08:50;13.02;;;4.47;;
76103;SDS011;64831;44.870;37.336;2022-12-11T06:11:21;8.73;;;4.82;;
76103;SDS011;64831;44.870;37.336;2022-12-11T06:13:51;7.63;;;3.75;;
76103;SDS011;64831;44.870;37.336;2022-12-11T06:16:23;8.73;;;4.13;;
76103;SDS011;64831;44.870;37.336;2022-12-11T06:18:49;8.98;;;4.40;;
76103;SDS011;64831;44.870;37.336;2022-12-11T06:21:18;8.77;;;4.13;;
76103;SDS011;64831;44.870;37.336;2022-12-11T06:23:49;8.38;;;3.88;;
76103;SDS011;64831;44.870;37.336;2022-12-11T06:26:19;7.93;;;4.68;;
76103;SDS011;64831;44.870;37.336;2022-12-11T06:28:46;8.05;;;4.30;;
76103;SDS011;64831;44.870;37.336;2022-12-11T06:31:17;14.07;;;4.30;;
76103;SDS011;64831;44.870;37.336;2022-12-11T06:33:44;8.32;;;4.80;;
76103;SDS011;64831;44.870;37.336;2022-12-11T06:36:12;10.43;;;3.88;;
76103;SDS011;64831;44.870;37.336;2022-12-11T06:38:40;7.28;;;4.28;;
76103;SDS011;64831;44.870;37.336;2022-12-11T06:41:07;7.30;;;4.38;;
76103;SDS011;64831;44.870;37.336;2022-12-11T06:43:34;9.60;;;4.10;;
76103;SDS011;64831;44.870;37.336;2022-12-11T06:46:05;11.73;;;4.63;;
76103;SDS011;64831;44.870;37.336;2022-12-11T06:48:33;7.72;;;4.45;;
76103;SDS011;64831;44.870;37.336;2022-12-11T06:51:05;6.25;;;4.28;;
76103;SDS011;64831;44.870;37.336;2022-12-11T06:53:37;6.82;;;4.47;;
76103;SDS011;64831;44.870;37.336;2022-12-11T06:56:16;10.02;;;4.68;;
76103;SDS011;64831;44.870;37.336;2022-12-11T06:59:09;6.65;;;4.60;;
76103;SDS011;64831;44.870;37.336;2022-12-11T07:01:36;7.80;;;4.53;;
76103;SDS011;64831;44.870;37.336;2022-12-11T07:04:07;7.88;;;5.20;;
76103;SDS011;64831;44.870;37.336;2022-12-11T07:06:37;8.25;;;4.60;;
76103;SDS011;64831;44.870;37.336;2022-12-11T07:09:04;6.60;;;3.85;;
76103;SDS011;64831;44.870;37.336;2022-12-11T07:11:33;8.05;;;4.65;;
76103;SDS011;64831;44.870;37.336;2022-12-11T07:13:59;6.72;;;4.30;;
76103;SDS011;64831;44.870;37.336;2022-12-11T07:16:25;7.13;;;4.65;;
76103;SDS011;64831;44.870;37.336;2022-12-11T07:19:04;8.68;;;4.47;;
76103;SDS011;64831;44.870;37.336;2022-12-11T07:21:30;6.65;;;4.35;;
76103;SDS011;64831;44.870;37.336;2022-12-11T07:23:56;7.85;;;4.50;;
76103;SDS011;64831;44.870;37.336;2022-12-11T07:26:23;5.90;;;4.53;;
76103;SDS011;64831;44.870;37.336;2022-12-11T07:28:49;7.43;;;4.22;;
76103;SDS011;64831;44.870;37.336;2022-12-11T07:31:19;8.43;;;4.18;;
76103;SDS011;64831;44.870;37.336;2022-12-11T07:33:46;7.82;;;4.35;;
76103;SDS011;64831;44.870;37.336;2022-12-11T07:36:18;11.00;;;4.63;;
76103;SDS011;64831;44.870;37.336;2022-12-11T07:38:53;10.32;;;4.60;;
76103;SDS011;64831;44.870;37.336;2022-12-11T07:44:16;7.65;;;4.20;;
76103;SDS011;64831;44.870;37.336;2022-12-11T07:46:45;5.30;;;3.95;;
76103;SDS011;64831;44.870;37.336;2022-12-11T07:49:13;7.90;;;4.03;;
76103;SDS011;64831;44.870;37.336;2022-12-11T07:51:39;6.53;;;4.20;;
76103;SDS011;64831;44.870;37.336;2022-12-11T07:54:09;6.45;;;3.80;;
76103;SDS011;64831;44.870;37.336;2022-12-11T07:56:39;7.95;;;4.35;;
76103;SDS011;64831;44.870;37.336;2022-12-11T07:59:05;7.45;;;4.10;;
76103;SDS011;64831;44.870;37.336;2022-12-11T08:01:34;9.23;;;4.47;;
76103;SDS011;64831;44.870;37.336;2022-12-11T08:04:04;5.30;;;4.10;;
76103;SDS011;64831;44.870;37.336;2022-12-11T08:06:36;8.52;;;4.57;;
76103;SDS011;64831;44.870;37.336;2022-12-11T08:09:07;7.07;;;4.70;;
76103;SDS011;64831;44.870;37.336;2022-12-11T08:11:38;10.63;;;4.05;;
76103;SDS011;64831;44.870;37.336;2022-12-11T08:14:12;5.82;;;4.13;;
76103;SDS011;64831;44.870;37.336;2022-12-11T08:16:38;7.68;;;4.70;;
76103;SDS011;64831;44.870;37.336;2022-12-11T08:21:36;13.32;;;4.47;;
76103;SDS011;64831;44.870;37.336;2022-12-11T08:24:05;9.57;;;4.53;;
76103;SDS011;64831;44.870;37.336;2022-12-11T08:26:35;7.45;;;4.47;;
76103;SDS011;64831;44.870;37.336;2022-12-11T08:29:01;7.95;;;4.10;;
76103;SDS011;64831;44.870;37.336;2022-12-11T08:31:34;7.97;;;4.18;;
76103;SDS011;64831;44.870;37.336;2022-12-11T08:34:00;6.32;;;4.25;;
76103;SDS011;64831;44.870;37.336;2022-12-11T08:36:26;10.10;;;4.60;;
76103;SDS011;64831;44.870;37.336;2022-12-11T08:38:53;7.20;;;3.92;;
76103;SDS011;64831;44.870;37.336;2022-12-11T08:41:24;7.70;;;4.25;;
76103;SDS011;64831;44.870;37.336;2022-12-11T08:43:51;6.78;;;4.20;;
76103;SDS011;64831;44.870;37.336;2022-12-11T08:46:20;8.13;;;4.30;;
76103;SDS011;64831;44.870;37.336;2022-12-11T08:48:54;7.35;;;4.47;;
76103;SDS011;64831;44.870;37.336;2022-12-11T08:51:29;10.20;;;4.18;;
76103;SDS011;64831;44.870;37.336;2022-12-11T08:54:01;9.13;;;4.30;;
76103;SDS011;64831;44.870;37.336;2022-12-11T08:56:27;7.65;;;4.28;;
76103;SDS011;64831;44.870;37.336;2022-12-11T08:59:00;9.90;;;4.15;;
76103;SDS011;64831;44.870;37.336;2022-12-11T09:01:26;11.75;;;4.75;;
76103;SDS011;64831;44.870;37.336;2022-12-11T09:04:16;6.68;;;4.05;;
76103;SDS011;64831;44.870;37.336;2022-12-11T09:06:45;6.72;;;4.35;;
76103;SDS011;64831;44.870;37.336;2022-12-11T09:09:11;7.85;;;5.10;;
76103;SDS011;64831;44.870;37.336;2022-12-11T09:11:37;6.07;;;3.92;;
76103;SDS011;64831;44.870;37.336;2022-12-11T09:14:03;6.85;;;3.72;;
76103;SDS011;64831;44.870;37.336;2022-12-11T09:16:34;6.50;;;4.15;;
76103;SDS011;64831;44.870;37.336;2022-12-11T09:19:04;7.75;;;4.38;;
76103;SDS011;64831;44.870;37.336;2022-12-11T09:21:31;8.07;;;4.32;;
76103;SDS011;64831;44.870;37.336;2022-12-11T09:24:04;7.72;;;4.25;;
76103;SDS011;64831;44.870;37.336;2022-12-11T09:26:30;6.53;;;4.53;;
76103;SDS011;64831;44.870;37.336;2022-12-11T09:29:00;9.93;;;4.68;;
76103;SDS011;64831;44.870;37.336;2022-12-11T09:31:30;7.22;;;4.38;;
76103;SDS011;64831;44.870;37.336;2022-12-11T09:33:58;8.68;;;3.75;;
76103;SDS011;64831;44.870;37.336;2022-12-11T09:36:30;8.23;;;4.50;;
76103;SDS011;64831;44.870;37.336;2022-12-11T09:39:00;6.15;;;4.07;;
76103;SDS011;64831;44.870;37.336;2022-12-11T09:41:44;10.70;;;4.20;;
76103;SDS011;64831;44.870;37.336;2022-12-11T09:44:37;7.63;;;4.63;;
76103;SDS011;64831;44.870;37.336;2022-12-11T09:47:16;7.47;;;4.30;;
76103;SDS011;64831;44.870;37.336;2022-12-11T09:50:09;5.82;;;3.90;;
76103;SDS011;64831;44.870;37.336;2022-12-11T09:52:47;7.75;;;4.25;;
76103;SDS011;64831;44.870;37.336;2022-12-11T09:55:25;8.13;;;3.97;;
76103;SDS011;64831;44.870;37.336;2022-12-11T09:58:03;7.43;;;3.67;;
76103;SDS011;64831;44.870;37.336;2022-12-11T10:06:32;5.55;;;3.72;;
76103;SDS011;64831;44.870;37.336;2022-12-11T10:14:25;8.68;;;4.45;;
76103;SDS011;64831;44.870;37.336;2022-12-11T10:19:47;7.63;;;4.00;;
76103;SDS011;64831;44.870;37.336;2022-12-11T10:22:23;8.07;;;3.67;;
76103;SDS011;64831;44.870;37.336;2022-12-11T10:25:17;6.45;;;3.58;;
76103;SDS011;64831;44.870;37.336;2022-12-11T10:27:48;6.38;;;3.78;;
76103;SDS011;64831;44.870;37.336;2022-12-11T10:30:19;8.80;;;3.75;;
76103;SDS011;64831;44.870;37.336;2022-12-11T10:35:42;5.55;;;3.38;;
76103;SDS011;64831;44.870;37.336;2022-12-11T10:38:14;7.50;;;4.22;;
76103;SDS011;64831;44.870;37.336;2022-12-11T10:40:50;9.52;;;3.70;;
76103;SDS011;64831;44.870;37.336;2022-12-11T10:43:19;5.60;;;3.35;;
76103;SDS011;64831;44.870;37.336;2022-12-11T10:45:52;6.18;;;3.70;;
76103;SDS011;64831;44.870;37.336;2022-12-11T10:48:19;6.15;;;3.55;;
76103;SDS011;64831;44.870;37.336;2022-12-11T10:50:54;5.13;;;3.20;;
76103;SDS011;64831;44.870;37.336;2022-12-11T10:53:25;9.05;;;4.25;;
76103;SDS011;64831;44.870;37.336;2022-12-11T10:55:52;7.43;;;3.83;;
76103;SDS011;64831;44.870;37.336;2022-12-11T10:58:27;6.65;;;3.58;;
76103;SDS011;64831;44.870;37.336;2022-12-11T11:01:01;7.72;;;4.35;;
76103;SDS011;64831;44.870;37.336;2022-12-11T11:03:58;8.15;;;3.92;;
76103;SDS011;64831;44.870;37.336;2022-12-11T11:06:37;6.95;;;4.05;;
76103;SDS011;64831;44.870;37.336;2022-12-11T11:09:03;6.25;;;3.85;;
76103;SDS011;64831;44.870;37.336;2022-12-11T11:11:33;7.90;;;4.05;;
76103;SDS011;64831;44.870;37.336;2022-12-11T11:14:17;5.93;;;3.38;;
76103;SDS011;64831;44.870;37.336;2022-12-11T11:16:48;7.82;;;3.70;;
76103;SDS011;64831;44.870;37.336;2022-12-11T11:21:49;8.07;;;4.03;;
76103;SDS011;64831;44.870;37.336;2022-12-11T11:24:32;7.03;;;3.65;;
76103;SDS011;64831;44.870;37.336;2022-12-11T11:27:01;6.95;;;3.47;;
76103;SDS011;64831;44.870;37.336;2022-12-11T11:29:29;9.60;;;3.35;;
76103;SDS011;64831;44.870;37.336;2022-12-11T11:32:25;7.35;;;2.95;;
76103;SDS011;64831;44.870;37.336;2022-12-11T11:35:05;7.45;;;3.72;;
76103;SDS011;64831;44.870;37.336;2022-12-11T11:37:51;10.40;;;3.38;;
76103;SDS011;64831;44.870;37.336;2022-12-11T11:40:32;8.82;;;3.28;;
76103;SDS011;64831;44.870;37.336;2022-12-11T11:48:48;4.88;;;2.90;;
76103;SDS011;64831;44.870;37.336;2022-12-11T11:51:42;6.18;;;3.60;;
76103;SDS011;64831;44.870;37.336;2022-12-11T11:57:12;7.57;;;3.42;;
76103;SDS011;64831;44.870;37.336;2022-12-11T12:03:14;7.57;;;4.40;;
76103;SDS011;64831;44.870;37.336;2022-12-11T12:05:53;6.35;;;3.67;;
76103;SDS011;64831;44.870;37.336;2022-12-11T12:08:27;9.07;;;4.40;;
76103;SDS011;64831;44.870;37.336;2022-12-11T12:14:01;9.32;;;4.00;;
76103;SDS011;64831;44.870;37.336;2022-12-11T12:16:50;10.48;;;4.90;;
76103;SDS011;64831;44.870;37.336;2022-12-11T12:25:25;9.77;;;4.53;;
76103;SDS011;64831;44.870;37.336;2022-12-11T12:30:21;13.65;;;4.65;;
76103;SDS011;64831;44.870;37.336;2022-12-11T12:32:54;11.68;;;5.88;;
76103;SDS011;64831;44.870;37.336;2022-12-11T12:35:55;10.63;;;4.68;;
76103;SDS011;64831;44.870;37.336;2022-12-11T12:38:36;10.15;;;4.85;;
76103;SDS011;64831;44.870;37.336;2022-12-11T12:44:13;15.75;;;4.90;;
76103;SDS011;64831;44.870;37.336;2022-12-11T12:46:58;13.40;;;4.78;;
76103;SDS011;64831;44.870;37.336;2022-12-11T12:49:38;16.60;;;4.82;;
76103;SDS011;64831;44.870;37.336;2022-12-11T12:52:10;12.93;;;4.72;;
76103;SDS011;64831;44.870;37.336;2022-12-11T12:54:44;10.38;;;4.65;;
76103;SDS011;64831;44.870;37.336;2022-12-11T12:57:33;12.10;;;4.53;;
76103;SDS011;64831;44.870;37.336;2022-12-11T13:00:30;12.98;;;5.32;;
76103;SDS011;64831;44.870;37.336;2022-12-11T13:03:02;10.68;;;4.43;;
76103;SDS011;64831;44.870;37.336;2022-12-11T13:05:40;10.18;;;4.80;;
76103;SDS011;64831;44.870;37.336;2022-12-11T13:08:08;14.68;;;5.30;;
76103;SDS011;64831;44.870;37.336;2022-12-11T13:10:39;10.60;;;4.32;;
76103;SDS011;64831;44.870;37.336;2022-12-11T13:18:44;9.70;;;4.38;;
76103;SDS011;64831;44.870;37.336;2022-12-11T13:26:45;12.93;;;5.05;;
76103;SDS011;64831;44.870;37.336;2022-12-11T13:31:58;10.00;;;4.18;;
76103;SDS011;64831;44.870;37.336;2022-12-11T13:34:30;11.07;;;4.95;;
76103;SDS011;64831;44.870;37.336;2022-12-11T13:43:18;10.52;;;5.13;;
76103;SDS011;64831;44.870;37.336;2022-12-11T13:45:55;12.80;;;4.68;;
76103;SDS011;64831;44.870;37.336;2022-12-11T13:48:36;13.50;;;4.97;;
76103;SDS011;64831;44.870;37.336;2022-12-11T13:51:18;10.52;;;5.13;;
76103;SDS011;64831;44.870;37.336;2022-12-11T13:53:45;11.77;;;4.50;;
76103;SDS011;64831;44.870;37.336;2022-12-11T13:56:18;11.00;;;4.93;;
76103;SDS011;64831;44.870;37.336;2022-12-11T13:58:45;8.98;;;4.50;;
76103;SDS011;64831;44.870;37.336;2022-12-11T14:03:44;11.18;;;5.25;;
76103;SDS011;64831;44.870;37.336;2022-12-11T14:06:32;10.60;;;4.65;;
76103;SDS011;64831;44.870;37.336;2022-12-11T14:09:00;14.82;;;5.53;;
76103;SDS011;64831;44.870;37.336;2022-12-11T14:11:30;17.50;;;6.35;;
76103;SDS011;64831;44.870;37.336;2022-12-11T14:14:07;14.57;;;5.40;;
76103;SDS011;64831;44.870;37.336;2022-12-11T14:16:50;10.45;;;5.78;;
76103;SDS011;64831;44.870;37.336;2022-12-11T14:19:18;12.95;;;6.10;;
76103;SDS011;64831;44.870;37.336;2022-12-11T14:21:55;13.13;;;5.47;;
76103;SDS011;64831;44.870;37.336;2022-12-11T14:24:23;18.30;;;6.13;;
76103;SDS011;64831;44.870;37.336;2022-12-11T14:26:53;12.27;;;5.32;;
76103;SDS011;64831;44.870;37.336;2022-12-11T14:29:24;16.67;;;5.00;;
76103;SDS011;64831;44.870;37.336;2022-12-11T14:31:54;11.45;;;5.43;;
76103;SDS011;64831;44.870;37.336;2022-12-11T14:34:35;12.93;;;5.40;;
76103;SDS011;64831;44.870;37.336;2022-12-11T14:37:32;9.82;;;4.68;;
76103;SDS011;64831;44.870;37.336;2022-12-11T14:40:00;10.43;;;5.05;;
76103;SDS011;64831;44.870;37.336;2022-12-11T14:42:44;10.38;;;4.90;;
76103;SDS011;64831;44.870;37.336;2022-12-11T14:45:19;13.48;;;5.20;;
76103;SDS011;64831;44.870;37.336;2022-12-11T14:50:20;13.88;;;4.93;;
76103;SDS011;64831;44.870;37.336;2022-12-11T14:52:58;15.13;;;4.95;;
76103;SDS011;64831;44.870;37.336;2022-12-11T14:55:30;16.77;;;5.57;;
76103;SDS011;64831;44.870;37.336;2022-12-11T14:58:21;11.48;;;5.05;;
76103;SDS011;64831;44.870;37.336;2022-12-11T15:01:02;10.27;;;4.68;;
76103;SDS011;64831;44.870;37.336;2022-12-11T15:03:47;12.40;;;4.80;;
76103;SDS011;64831;44.870;37.336;2022-12-11T15:06:24;20.77;;;7.65;;
76103;SDS011;64831;44.870;37.336;2022-12-11T15:09:18;14.50;;;5.65;;
76103;SDS011;64831;44.870;37.336;2022-12-11T15:11:49;12.80;;;5.82;;
76103;SDS011;64831;44.870;37.336;2022-12-11T15:14:17;11.07;;;5.30;;
76103;SDS011;64831;44.870;37.336;2022-12-11T15:16:48;11.20;;;4.13;;
76103;SDS011;64831;44.870;37.336;2022-12-11T15:19:19;10.07;;;4.20;;
76103;SDS011;64831;44.870;37.336;2022-12-11T15:21:49;9.23;;;4.25;;
76103;SDS011;64831;44.870;37.336;2022-12-11T15:24:23;6.13;;;3.72;;
76103;SDS011;64831;44.870;37.336;2022-12-11T15:26:58;9.38;;;4.57;;
76103;SDS011;64831;44.870;37.336;2022-12-11T15:29:29;9.77;;;4.28;;
76103;SDS011;64831;44.870;37.336;2022-12-11T15:31:59;7.75;;;4.47;;
76103;SDS011;64831;44.870;37.336;2022-12-11T15:34:31;8.57;;;4.03;;
76103;SDS011;64831;44.870;37.336;2022-12-11T15:36:59;9.02;;;4.15;;
76103;SDS011;64831;44.870;37.336;2022-12-11T15:39:30;10.00;;;3.92;;
76103;SDS011;64831;44.870;37.336;2022-12-11T15:41:55;9.15;;;4.53;;
76103;SDS011;64831;44.870;37.336;2022-12-11T15:44:24;12.30;;;4.40;;
76103;SDS011;64831;44.870;37.336;2022-12-11T15:46:55;9.52;;;4.10;;
76103;SDS011;64831;44.870;37.336;2022-12-11T15:49:27;13.15;;;5.18;;
76103;SDS011;64831;44.870;37.336;2022-12-11T15:51:52;17.88;;;6.05;;
76103;SDS011;64831;44.870;37.336;2022-12-11T15:54:21;10.95;;;5.28;;
76103;SDS011;64831;44.870;37.336;2022-12-11T15:56:47;11.32;;;4.50;;
76103;SDS011;64831;44.870;37.336;2022-12-11T15:59:15;15.00;;;4.60;;
76103;SDS011;64831;44.870;37.336;2022-12-11T16:01:48;11.30;;;4.53;;
76103;SDS011;64831;44.870;37.336;2022-12-11T16:04:16;8.65;;;4.57;;
76103;SDS011;64831;44.870;37.336;2022-12-11T16:06:42;13.65;;;5.15;;
76103;SDS011;64831;44.870;37.336;2022-12-11T16:09:10;8.05;;;4.43;;
76103;SDS011;64831;44.870;37.336;2022-12-11T16:11:39;13.83;;;4.63;;
76103;SDS011;64831;44.870;37.336;2022-12-11T16:14:11;11.65;;;4.82;;
76103;SDS011;64831;44.870;37.336;2022-12-11T16:16:40;16.05;;;4.60;;
76103;SDS011;64831;44.870;37.336;2022-12-11T16:19:06;11.60;;;4.97;;
76103;SDS011;64831;44.870;37.336;2022-12-11T16:21:35;9.70;;;4.32;;
76103;SDS011;64831;44.870;37.336;2022-12-11T16:24:01;13.57;;;4.65;;
76103;SDS011;64831;44.870;37.336;2022-12-11T16:26:27;12.25;;;4.93;;